Time;durP1;ratioP1;P1;durP2;ratioP2;P2;SDS_P1;SDS_P2;PMS_P1;PMS_P2;Temp;Humidity;BMP_temperature;BMP_pressure;BME280_temperature;BME280_humidity;BME280_pressure;Samples;Min_cycle;Max_cycle;Signal;HPM_P1;HPM_P2
2021/06/26 00:00:53;;;;;;;2.77;1.83;;;;;;;14.66;61.24;101188.70;127523;1093;64119;-81
2021/06/26 00:03:23;;;;;;;3.23;1.93;;;;;;;14.60;62.22;101192.98;128110;1093;63457;-79
2021/06/26 00:05:50;;;;;;;3.73;2.00;;;;;;;14.54;62.89;101196.37;128239;1093;64081;-80
2021/06/26 00:08:18;;;;;;;3.55;2.20;;;;;;;14.48;63.68;101199.80;125565;1093;64205;-80
2021/06/26 00:10:46;;;;;;;3.97;2.13;;;;;;;14.43;64.22;101204.88;125130;1092;64262;-78
2021/06/26 00:13:17;;;;;;;4.87;2.63;;;;;;;14.38;64.69;101204.59;124965;1092;64397;-78
2021/06/26 00:15:45;;;;;;;4.03;2.03;;;;;;;14.36;65.48;101201.28;125068;1093;64245;-77
2021/06/26 00:18:12;;;;;;;5.70;2.30;;;;;;;14.32;65.69;101194.66;125033;1093;64208;-78
2021/06/26 00:20:40;;;;;;;4.63;2.17;;;;;;;14.28;65.77;101200.39;125131;1092;64380;-79
2021/06/26 00:23:07;;;;;;;3.70;2.77;;;;;;;14.25;66.23;101199.93;125079;1092;64349;-78
2021/06/26 00:25:34;;;;;;;4.37;2.50;;;;;;;14.22;65.96;101201.13;125037;1092;64265;-78
2021/06/26 00:28:01;;;;;;;4.00;2.67;;;;;;;14.20;66.32;101200.49;124881;1092;64277;-78
2021/06/26 00:30:29;;;;;;;4.93;2.90;;;;;;;14.17;66.48;101197.36;124821;1092;64291;-78
2021/06/26 00:32:56;;;;;;;6.97;2.77;;;;;;;14.15;67.00;101197.54;124801;1092;64349;-78
2021/06/26 00:35:24;;;;;;;3.20;2.40;;;;;;;14.15;67.50;101204.72;124827;1093;64307;-79
2021/06/26 00:37:51;;;;;;;3.67;2.03;;;;;;;14.15;68.20;101202.88;124952;1092;64467;-79
2021/06/26 00:40:18;;;;;;;5.07;2.73;;;;;;;14.15;68.22;101205.54;125187;1093;64342;-79
2021/06/26 00:42:45;;;;;;;3.80;2.27;;;;;;;14.14;68.46;101203.90;125106;1093;64387;-78
2021/06/26 00:45:16;;;;;;;5.20;2.57;;;;;;;14.15;68.34;101199.38;125040;1093;64806;-80
2021/06/26 00:47:44;;;;;;;4.10;2.80;;;;;;;14.17;68.83;101197.36;125348;1093;64230;-78
2021/06/26 00:50:19;;;;;;;3.33;2.50;;;;;;;14.18;68.74;101199.84;125360;1093;64284;-81
2021/06/26 00:52:47;;;;;;;4.33;2.63;;;;;;;14.21;68.88;101199.47;125205;1093;64290;-79
2021/06/26 00:55:16;;;;;;;5.10;2.47;;;;;;;14.19;69.20;101190.81;125205;1093;64333;-78
2021/06/26 00:57:45;;;;;;;4.57;2.63;;;;;;;14.20;68.94;101200.49;125307;1093;64939;-80
2021/06/26 01:00:13;;;;;;;4.17;2.80;;;;;;;14.20;69.17;101203.16;125020;1093;64330;-79
2021/06/26 01:02:41;;;;;;;5.20;2.80;;;;;;;14.19;69.88;101201.48;125146;1093;64265;-79
2021/06/26 01:05:10;;;;;;;3.60;2.40;;;;;;;14.19;69.96;101198.82;125151;1093;64403;-79
2021/06/26 01:07:37;;;;;;;9.30;3.15;;;;;;;14.18;69.75;101202.52;125165;1092;64260;-78
2021/06/26 01:10:06;;;;;;;5.60;3.03;;;;;;;14.17;69.92;101205.36;125101;1092;64276;-79
2021/06/26 01:12:34;;;;;;;6.57;2.80;;;;;;;14.17;70.16;101208.85;124935;1093;64243;-79
2021/06/26 01:15:01;;;;;;;4.60;3.10;;;;;;;14.19;70.30;101203.34;125035;1093;64397;-79
2021/06/26 01:17:28;;;;;;;4.00;2.73;;;;;;;14.23;70.28;101205.44;125059;1093;64285;-81
2021/06/26 01:19:56;;;;;;;5.07;2.87;;;;;;;14.26;70.61;101213.09;125100;1093;64321;-82
2021/06/26 01:22:27;;;;;;;5.20;2.57;;;;;;;14.32;70.49;101214.17;125367;1092;64703;-80
2021/06/26 01:24:54;;;;;;;3.13;2.40;;;;;;;14.37;70.65;101210.97;125275;1093;64304;-80
2021/06/26 01:27:22;;;;;;;4.90;2.90;;;;;;;14.42;70.44;101216.55;125273;1093;64272;-79
2021/06/26 01:29:51;;;;;;;4.70;2.67;;;;;;;14.44;69.95;101219.86;125049;1091;64750;-80
2021/06/26 01:32:19;;;;;;;4.93;2.80;;;;;;;14.47;69.44;101217.66;125020;1092;64777;-80
2021/06/26 01:34:47;;;;;;;6.20;2.50;;;;;;;14.48;69.50;101211.29;124982;1092;64262;-82
2021/06/26 01:37:14;;;;;;;3.60;2.63;;;;;;;14.51;70.06;101207.41;125238;1093;64374;-80
2021/06/26 01:39:42;;;;;;;3.87;2.30;;;;;;;14.54;69.79;101208.90;125040;1093;64201;-81
2021/06/26 01:42:10;;;;;;;4.33;2.87;;;;;;;14.54;70.08;101201.71;125143;1093;64282;-80
2021/06/26 01:44:37;;;;;;;4.93;2.70;;;;;;;14.55;70.46;101203.38;125037;1092;64298;-80
2021/06/26 01:47:09;;;;;;;3.63;2.50;;;;;;;14.58;70.27;101205.69;125280;1092;64208;-80
2021/06/26 01:49:37;;;;;;;4.30;2.57;;;;;;;14.60;69.83;101203.66;125224;1093;64380;-79
2021/06/26 01:52:08;;;;;;;5.53;2.27;;;;;;;14.60;69.89;101198.32;125377;1092;65371;-80
2021/06/26 01:54:37;;;;;;;3.93;2.57;;;;;;;14.66;69.41;101202.91;125151;1093;64282;-79
2021/06/26 01:57:13;;;;;;;3.67;2.53;;;;;;;14.68;69.71;101198.20;125513;1093;64211;-82
2021/06/26 01:59:40;;;;;;;4.17;2.80;;;;;;;14.71;69.70;101198.84;125197;1093;64207;-80
2021/06/26 02:02:07;;;;;;;4.20;2.35;;;;;;;14.73;69.42;101202.13;124931;1092;64451;-81
2021/06/26 02:04:34;;;;;;;5.27;2.70;;;;;;;14.75;69.40;101200.09;125168;1093;64235;-81
2021/06/26 02:07:02;;;;;;;4.50;2.80;;;;;;;14.76;69.53;101199.09;125042;1093;64349;-80
2021/06/26 02:09:29;;;;;;;7.70;2.20;;;;;;;14.75;69.49;101197.42;124976;1092;64268;-81
2021/06/26 02:11:56;;;;;;;6.20;2.25;;;;;;;14.73;69.60;101194.11;124985;1093;64391;-80
2021/06/26 02:14:23;;;;;;;6.60;2.37;;;;;;;14.71;70.03;101193.50;125158;1093;64288;-80
2021/06/26 02:16:50;;;;;;;6.97;2.70;;;;;;;14.67;70.49;101188.52;125182;1092;64854;-80
2021/06/26 02:19:17;;;;;;;5.60;2.17;;;;;;;14.65;70.68;101185.22;125248;1093;64284;-80
2021/06/26 02:21:44;;;;;;;5.63;2.63;;;;;;;14.62;70.81;101190.95;125001;1092;64368;-79
2021/06/26 02:24:11;;;;;;;5.57;2.63;;;;;;;14.59;71.38;101188.64;125042;1093;64333;-80
2021/06/26 02:26:38;;;;;;;5.37;2.90;;;;;;;14.57;71.91;101179.99;125121;1092;64779;-81
2021/06/26 02:29:05;;;;;;;3.00;2.55;;;;;;;14.55;72.05;101191.84;125073;1093;64406;-79
2021/06/26 02:31:32;;;;;;;3.80;2.73;;;;;;;14.51;72.29;101185.23;125091;1093;64285;-81
2021/06/26 02:34:00;;;;;;;5.63;2.83;;;;;;;14.46;72.38;101196.48;124953;1093;64304;-79
2021/06/26 02:36:27;;;;;;;7.00;2.63;;;;;;;14.43;72.42;101191.53;125140;1092;65521;-79
2021/06/26 02:38:54;;;;;;;5.43;3.77;;;;;;;14.38;72.29;101196.59;124971;1092;64467;-79
2021/06/26 02:41:22;;;;;;;7.03;3.10;;;;;;;14.35;72.55;101200.47;125043;1092;64986;-79
2021/06/26 02:43:50;;;;;;;5.63;3.07;;;;;;;14.33;73.07;101201.67;125072;1093;64205;-80
2021/06/26 02:46:17;;;;;;;6.73;3.10;;;;;;;14.32;72.94;101200.00;125226;1093;64208;-80
2021/06/26 02:48:44;;;;;;;4.47;3.00;;;;;;;14.30;73.03;101202.03;125097;1092;64750;-80
2021/06/26 02:51:12;;;;;;;4.37;2.97;;;;;;;14.29;72.95;101201.21;124929;1093;64414;-80
2021/06/26 02:53:39;;;;;;;7.83;3.10;;;;;;;14.30;73.27;101196.69;124925;1092;64368;-81
2021/06/26 02:56:06;;;;;;;4.50;2.90;;;;;;;14.27;73.80;101201.39;124907;1092;65526;-81
2021/06/26 02:58:33;;;;;;;6.83;3.47;;;;;;;14.28;73.81;101207.58;124992;1092;64728;-82
2021/06/26 03:01:01;;;;;;;4.83;3.03;;;;;;;14.27;73.99;101209.39;124997;1093;64303;-82
2021/06/26 03:03:28;;;;;;;5.77;2.73;;;;;;;14.26;73.57;101202.42;127485;1093;64248;-83
2021/06/26 03:05:55;;;;;;;4.63;2.90;;;;;;;14.26;73.60;101205.09;125731;1091;64285;-83
2021/06/26 03:08:22;;;;;;;3.73;2.63;;;;;;;14.27;73.72;101205.91;125244;1093;64281;-81
2021/06/26 03:10:49;;;;;;;4.13;2.70;;;;;;;14.31;74.10;101203.70;125230;1093;64301;-81
2021/06/26 03:13:17;;;;;;;4.53;2.57;;;;;;;14.36;73.89;101209.30;124995;1092;64192;-83
2021/06/26 03:15:44;;;;;;;5.03;3.17;;;;;;;14.40;73.73;101207.91;124952;1093;64305;-81
2021/06/26 03:18:13;;;;;;;3.40;2.50;;;;;;;14.46;74.22;101212.50;125216;1093;64301;-82
2021/06/26 03:20:40;;;;;;;7.80;3.40;;;;;;;14.51;73.73;101210.08;125320;1093;64300;-79
2021/06/26 03:23:08;;;;;;;10.80;3.60;;;;;;;14.59;73.70;101214.52;125054;1093;64234;-80
2021/06/26 03:25:35;;;;;;;7.20;3.47;;;;;;;14.64;73.51;101210.28;125020;1092;64287;-82
2021/06/26 03:28:03;;;;;;;4.87;2.83;;;;;;;14.70;73.55;101208.67;125078;1093;64657;-80
2021/06/26 03:30:31;;;;;;;5.20;3.10;;;;;;;14.78;73.28;101210.41;125319;1093;64414;-82
2021/06/26 03:32:59;;;;;;;6.43;3.97;;;;;;;14.83;73.12;101208.83;125202;1092;64307;-82
2021/06/26 03:35:26;;;;;;;6.33;2.90;;;;;;;14.90;73.05;101219.58;125321;1092;64300;-82
2021/06/26 03:37:53;;;;;;;5.53;3.33;;;;;;;14.97;72.96;101212.44;125005;1092;64284;-81
2021/06/26 03:40:20;;;;;;;4.13;2.60;;;;;;;15.03;72.88;101225.04;124972;1093;64345;-82
2021/06/26 03:42:47;;;;;;;4.77;2.90;;;;;;;15.07;72.63;101214.80;124870;1092;64278;-80
2021/06/26 03:45:14;;;;;;;4.50;2.80;;;;;;;15.15;72.32;101220.02;125308;1093;65149;-81
2021/06/26 03:47:41;;;;;;;7.70;3.27;;;;;;;15.21;72.53;101211.20;125630;1093;64265;-81
2021/06/26 03:50:09;;;;;;;6.93;3.50;;;;;;;15.29;72.14;101219.09;125611;1093;64301;-80
2021/06/26 03:52:36;;;;;;;6.10;3.50;;;;;;;15.41;71.44;101222.08;126279;1092;64307;-84
2021/06/26 03:55:04;;;;;;;4.50;3.07;;;;;;;15.48;71.28;101214.92;127132;1093;64261;-82
2021/06/26 03:57:31;;;;;;;3.57;2.77;;;;;;;15.57;70.95;101209.43;127084;1093;64297;-84
2021/06/26 03:59:58;;;;;;;3.75;2.90;;;;;;;15.64;70.64;101212.96;125726;1093;64243;-83
2021/06/26 04:02:25;;;;;;;4.17;3.20;;;;;;;15.72;70.40;101218.20;125179;1093;64284;-80
2021/06/26 04:04:53;;;;;;;5.30;3.00;;;;;;;15.80;70.03;101220.72;124844;1093;64349;-85
2021/06/26 04:07:20;;;;;;;5.83;3.23;;;;;;;15.89;69.67;101230.23;125030;1093;64844;-80
2021/06/26 04:09:47;;;;;;;8.27;4.17;;;;;;;15.96;69.20;101229.45;124964;1093;64293;-81
2021/06/26 04:12:14;;;;;;;4.87;3.27;;;;;;;16.01;68.92;101233.19;124858;1093;64291;-82
2021/06/26 04:14:41;;;;;;;4.77;2.77;;;;;;;16.03;68.11;101225.80;125034;1092;64307;-84
2021/06/26 04:17:09;;;;;;;6.37;3.63;;;;;;;16.04;67.97;101227.44;124953;1092;64320;-82
2021/06/26 04:19:37;;;;;;;3.47;2.57;;;;;;;16.07;67.90;101232.41;124873;1092;64284;-83
2021/06/26 04:22:04;;;;;;;4.35;2.60;;;;;;;16.11;67.81;101232.84;125003;1093;64720;-80
2021/06/26 04:24:31;;;;;;;4.17;2.93;;;;;;;16.16;67.32;101225.03;125077;1093;64313;-80
2021/06/26 04:26:59;;;;;;;4.63;3.03;;;;;;;16.18;67.35;101236.38;125059;1092;64303;-80
2021/06/26 04:29:26;;;;;;;4.10;2.90;;;;;;;16.22;67.33;101245.66;124991;1093;64230;-80
2021/06/26 04:31:53;;;;;;;5.17;3.07;;;;;;;16.24;67.45;101248.14;124931;1093;64401;-80
2021/06/26 04:34:20;;;;;;;5.67;3.70;;;;;;;16.24;67.88;101259.67;124964;1092;64317;-83
2021/06/26 04:36:48;;;;;;;4.87;2.50;;;;;;;16.26;67.86;101252.27;124997;1093;64284;-83
2021/06/26 04:39:16;;;;;;;5.40;2.97;;;;;;;16.29;68.28;101259.89;124981;1092;64211;-80
2021/06/26 04:41:43;;;;;;;5.07;2.77;;;;;;;16.31;67.95;101254.34;124968;1092;64429;-80
2021/06/26 04:44:10;;;;;;;3.80;2.70;;;;;;;16.35;68.21;101263.63;125262;1093;64288;-79
2021/06/26 04:46:38;;;;;;;4.53;3.40;;;;;;;16.41;68.37;101259.34;125054;1093;64281;-81
2021/06/26 04:49:05;;;;;;;7.23;2.47;;;;;;;16.46;68.42;101251.52;125019;1093;64237;-80
2021/06/26 04:51:36;;;;;;;4.80;2.05;;;;;;;16.51;68.55;101265.13;125051;1093;64172;-81
2021/06/26 04:54:04;;;;;;;5.37;2.97;;;;;;;16.55;68.92;101257.52;124913;1092;64355;-81
2021/06/26 04:56:32;;;;;;;7.00;2.65;;;;;;;16.59;68.59;101251.56;124982;1092;64297;-81
2021/06/26 04:58:59;;;;;;;4.40;3.00;;;;;;;16.64;68.07;101254.48;124785;1093;64301;-80
2021/06/26 05:01:27;;;;;;;6.67;3.63;;;;;;;16.71;68.36;101258.00;124851;1093;64326;-81
2021/06/26 05:03:54;;;;;;;6.27;3.10;;;;;;;16.79;68.30;101257.00;125003;1093;64304;-80
2021/06/26 05:06:21;;;;;;;4.60;3.20;;;;;;;16.86;68.39;101262.40;124803;1093;65437;-80
2021/06/26 05:08:48;;;;;;;5.00;3.53;;;;;;;16.94;68.41;101256.86;124871;1092;64204;-80
2021/06/26 05:11:15;;;;;;;5.50;3.53;;;;;;;17.01;68.41;101255.00;124860;1093;64385;-80
2021/06/26 05:13:43;;;;;;;5.27;3.53;;;;;;;17.12;68.49;101253.56;125023;1093;64303;-81
2021/06/26 05:16:10;;;;;;;6.47;3.60;;;;;;;17.19;67.50;101250.89;124842;1092;64252;-81
2021/06/26 05:18:37;;;;;;;6.83;3.70;;;;;;;17.22;67.37;101253.18;125023;1093;64399;-81
2021/06/26 05:21:06;;;;;;;4.73;3.77;;;;;;;17.27;67.68;101248.83;124866;1093;64211;-80
2021/06/26 05:23:33;;;;;;;5.57;3.47;;;;;;;17.35;67.68;101247.81;125156;1093;65474;-80
2021/06/26 05:26:00;;;;;;;4.70;3.40;;;;;;;17.39;67.65;101251.73;124883;1093;64284;-80
2021/06/26 05:28:27;;;;;;;5.73;4.37;;;;;;;17.43;67.89;101252.16;124969;1093;64333;-81
2021/06/26 05:30:54;;;;;;;6.63;3.77;;;;;;;17.49;67.96;101248.66;124825;1093;64419;-81
2021/06/26 05:33:22;;;;;;;6.20;4.20;;;;;;;17.59;67.47;101250.89;124974;1093;64271;-82
2021/06/26 05:35:50;;;;;;;5.57;3.87;;;;;;;17.70;67.03;101255.63;124894;1092;64278;-82
2021/06/26 05:38:17;;;;;;;5.90;4.73;;;;;;;17.79;66.29;101251.71;124870;1093;64234;-82
2021/06/26 05:40:44;;;;;;;7.07;4.57;;;;;;;17.89;66.37;101254.82;125046;1093;64381;-82
2021/06/26 05:43:13;;;;;;;8.07;4.10;;;;;;;18.02;66.52;101253.97;124879;1093;64865;-81
2021/06/26 05:45:41;;;;;;;5.17;3.63;;;;;;;18.16;65.39;101251.23;124922;1092;64375;-81
2021/06/26 05:48:09;;;;;;;6.80;4.30;;;;;;;18.27;65.00;101254.06;124850;1093;64263;-81
2021/06/26 05:50:36;;;;;;;9.00;4.17;;;;;;;18.40;64.52;101255.06;125049;1093;64259;-81
2021/06/26 05:53:04;;;;;;;7.13;4.20;;;;;;;18.54;64.47;101253.97;125021;1091;65357;-82
2021/06/26 05:55:31;;;;;;;7.47;4.53;;;;;;;18.65;63.94;101255.16;125140;1093;64393;-81
2021/06/26 05:57:58;;;;;;;7.47;4.60;;;;;;;18.78;63.77;101262.32;124913;1093;64228;-81
2021/06/26 06:00:28;;;;;;;8.87;5.57;;;;;;;18.91;63.47;101256.89;125253;1092;64189;-80
2021/06/26 06:02:56;;;;;;;8.67;5.20;;;;;;;19.02;62.71;101252.68;125182;1093;64277;-80
2021/06/26 06:05:23;;;;;;;8.97;4.50;;;;;;;19.14;62.53;101249.08;124891;1093;64153;-81
2021/06/26 06:07:50;;;;;;;6.60;3.80;;;;;;;19.26;62.11;101257.28;124902;1093;64285;-80
2021/06/26 06:10:19;;;;;;;6.75;4.45;;;;;;;19.25;61.81;101260.17;124995;1092;64345;-80
2021/06/26 06:12:46;;;;;;;5.43;3.53;;;;;;;19.22;60.81;101258.75;125003;1092;64284;-79
2021/06/26 06:15:14;;;;;;;6.03;4.20;;;;;;;19.15;61.42;101260.68;125027;1092;64386;-80
2021/06/26 06:17:41;;;;;;;8.03;4.10;;;;;;;19.15;61.66;101266.88;124911;1092;64327;-79
2021/06/26 06:20:09;;;;;;;9.77;4.90;;;;;;;19.27;61.68;101266.16;125043;1093;64304;-81
2021/06/26 06:22:36;;;;;;;8.13;4.07;;;;;;;19.41;61.14;101270.41;125382;1092;64181;-81
2021/06/26 06:25:07;;;;;;;7.33;4.43;;;;;;;19.54;61.27;101280.23;125442;1093;64683;-80
2021/06/26 06:27:36;;;;;;;8.20;5.23;;;;;;;19.70;61.02;101278.87;127454;1093;64122;-81
2021/06/26 06:30:05;;;;;;;6.50;4.03;;;;;;;19.86;60.65;101272.10;127732;1093;61971;-81
2021/06/26 06:32:33;;;;;;;7.40;4.37;;;;;;;20.00;58.58;101280.85;127570;1093;63089;-81
2021/06/26 06:35:00;;;;;;;8.23;5.03;;;;;;;20.10;57.08;101278.47;126573;1093;64307;-82
2021/06/26 06:37:27;;;;;;;7.70;4.40;;;;;;;20.23;56.01;101281.04;125207;1093;64298;-81
2021/06/26 06:39:54;;;;;;;7.30;4.17;;;;;;;20.34;56.28;101280.28;125336;1092;64281;-81
2021/06/26 06:42:22;;;;;;;7.37;4.30;;;;;;;20.46;56.84;101287.59;124991;1093;64323;-81
2021/06/26 06:44:49;;;;;;;4.80;3.87;;;;;;;20.59;56.83;101287.45;125323;1092;64329;-80
2021/06/26 06:47:16;;;;;;;6.77;4.30;;;;;;;20.73;56.15;101290.81;125215;1093;64301;-83
2021/06/26 06:49:43;;;;;;;6.80;5.00;;;;;;;20.87;55.98;101292.28;125075;1092;64297;-80
2021/06/26 06:52:10;;;;;;;8.13;3.97;;;;;;;20.99;54.70;101289.61;125090;1092;64393;-81
2021/06/26 06:54:37;;;;;;;6.57;4.30;;;;;;;21.09;54.28;101289.88;125056;1093;64204;-81
2021/06/26 06:57:05;;;;;;;5.40;3.57;;;;;;;21.23;54.21;101285.12;125046;1093;64425;-81
2021/06/26 06:59:32;;;;;;;5.10;4.03;;;;;;;21.29;54.61;101286.05;125072;1092;65411;-82
2021/06/26 07:01:59;;;;;;;6.67;4.30;;;;;;;21.41;53.66;101286.90;125155;1093;64340;-81
2021/06/26 07:04:26;;;;;;;6.43;4.20;;;;;;;21.58;51.66;101289.77;125441;1092;64371;-82
2021/06/26 07:06:54;;;;;;;5.63;4.23;;;;;;;21.75;50.27;101289.89;126187;1093;64211;-81
2021/06/26 07:09:21;;;;;;;6.27;4.20;;;;;;;21.93;49.20;101292.48;125192;1093;64438;-81
2021/06/26 07:11:48;;;;;;;6.73;4.10;;;;;;;22.11;47.37;101293.39;125276;1092;64282;-80
2021/06/26 07:14:15;;;;;;;6.40;4.37;;;;;;;22.28;47.53;101293.52;125100;1093;64236;-80
2021/06/26 07:16:43;;;;;;;6.47;4.47;;;;;;;22.41;48.10;101292.42;125188;1093;64387;-81
2021/06/26 07:19:10;;;;;;;5.75;4.55;;;;;;;22.53;47.81;101301.33;124934;1093;64793;-80
2021/06/26 07:21:37;;;;;;;7.77;3.57;;;;;;;22.64;47.26;101295.05;125408;1093;64297;-81
2021/06/26 07:24:04;;;;;;;7.07;5.20;;;;;;;22.71;46.02;101297.61;124899;1093;64313;-81
2021/06/26 07:26:32;;;;;;;7.60;4.90;;;;;;;22.75;46.72;101299.58;125141;1092;65022;-82
2021/06/26 07:28:59;;;;;;;5.03;4.13;;;;;;;22.71;46.97;101298.42;124875;1093;64348;-81
2021/06/26 07:31:27;;;;;;;5.50;4.17;;;;;;;22.78;46.90;101298.27;124925;1093;64204;-75
2021/06/26 07:33:54;;;;;;;6.37;4.40;;;;;;;22.81;46.85;101300.52;124881;1093;64957;-76
2021/06/26 07:36:21;;;;;;;6.10;4.30;;;;;;;22.85;45.84;101300.86;124913;1093;65530;-75
2021/06/26 07:38:48;;;;;;;5.20;4.20;;;;;;;22.87;45.68;101296.03;124655;1093;65474;-76
2021/06/26 07:41:16;;;;;;;6.13;4.43;;;;;;;22.85;44.59;101293.55;124838;1093;64387;-76
2021/06/26 07:43:44;;;;;;;6.30;3.30;;;;;;;22.90;44.30;101290.12;124834;1093;65485;-77
2021/06/26 07:46:11;;;;;;;5.57;4.27;;;;;;;22.99;44.69;101296.77;125072;1093;64431;-76
2021/06/26 07:48:38;;;;;;;5.47;4.00;;;;;;;23.12;42.17;101288.39;124814;1093;64323;-76
2021/06/26 07:51:05;;;;;;;6.93;4.63;;;;;;;23.21;42.39;101291.52;124849;1093;64290;-76
2021/06/26 07:53:33;;;;;;;5.00;3.27;;;;;;;23.32;42.54;101292.51;124882;1092;64298;-76
2021/06/26 07:56:00;;;;;;;4.95;3.70;;;;;;;23.43;42.78;101282.66;124886;1092;64249;-76
2021/06/26 07:58:28;;;;;;;4.87;3.23;;;;;;;23.55;41.63;101276.09;124708;1093;64345;-76
2021/06/26 08:00:57;;;;;;;6.90;4.30;;;;;;;23.63;42.42;101284.86;124918;1093;65503;-75
2021/06/26 08:03:24;;;;;;;6.00;3.60;;;;;;;23.75;42.39;101280.98;125360;1093;64284;-75
2021/06/26 08:05:52;;;;;;;4.93;3.13;;;;;;;23.87;42.03;101283.63;124888;1093;64304;-75
2021/06/26 08:08:21;;;;;;;6.47;4.43;;;;;;;23.90;42.37;101285.02;124687;1092;64288;-75
2021/06/26 08:10:49;;;;;;;6.50;3.85;;;;;;;23.99;42.16;101289.77;124687;1094;64978;-75
2021/06/26 08:13:16;;;;;;;6.60;4.45;;;;;;;24.21;41.85;101283.55;124596;1093;64282;-76
2021/06/26 08:15:46;;;;;;;5.30;4.00;;;;;;;24.51;41.53;101280.41;124918;1093;64314;-76
2021/06/26 08:18:15;;;;;;;4.55;3.20;;;;;;;24.76;40.84;101279.87;124832;1093;64259;-76
2021/06/26 08:20:42;;;;;;;5.70;4.00;;;;;;;24.93;41.21;101273.52;124868;1093;64309;-76
2021/06/26 08:23:11;;;;;;;4.20;3.10;;;;;;;25.06;40.47;101275.00;124706;1093;64425;-75
2021/06/26 08:25:39;;;;;;;6.97;3.90;;;;;;;25.14;39.16;101275.34;124883;1093;64246;-77
2021/06/26 08:28:06;;;;;;;6.83;3.27;;;;;;;25.11;38.25;101275.03;124638;1093;64424;-78
2021/06/26 08:30:33;;;;;;;6.00;4.20;;;;;;;25.03;37.31;101277.16;124887;1093;64230;-76
2021/06/26 08:33:01;;;;;;;5.40;4.10;;;;;;;24.89;37.37;101275.11;124864;1093;64301;-75
2021/06/26 08:35:28;;;;;;;4.57;3.10;;;;;;;24.88;38.55;101270.74;124922;1093;64357;-74
2021/06/26 08:37:56;;;;;;;5.00;3.03;;;;;;;24.90;39.44;101272.12;124880;1093;64288;-75
2021/06/26 08:40:23;;;;;;;4.77;2.90;;;;;;;24.95;38.09;101265.91;124630;1093;64351;-72
2021/06/26 08:42:53;;;;;;;4.53;3.03;;;;;;;24.96;37.16;101262.14;124712;1093;64291;-74
2021/06/26 08:45:20;;;;;;;4.03;2.60;;;;;;;24.91;36.55;101259.39;124855;1093;64284;-73
2021/06/26 08:47:49;;;;;;;4.40;2.97;;;;;;;24.92;37.03;101267.25;124839;1093;64443;-73
2021/06/26 08:50:18;;;;;;;4.40;2.77;;;;;;;24.92;37.08;101266.44;124798;1093;64327;-73
2021/06/26 08:52:47;;;;;;;6.07;3.97;;;;;;;24.83;36.92;101264.19;125083;1093;64288;-73
2021/06/26 08:55:15;;;;;;;4.65;3.30;;;;;;;24.76;37.79;101263.59;125070;1093;64288;-73
2021/06/26 08:57:44;;;;;;;5.77;3.87;;;;;;;24.72;37.65;101272.50;124740;1093;64316;-74
2021/06/26 09:00:19;;;;;;;5.63;3.50;;;;;;;24.65;37.98;101261.82;124835;1093;64307;-73
2021/06/26 09:02:46;;;;;;;5.67;3.87;;;;;;;24.56;38.14;101274.22;124949;1093;64374;-75
2021/06/26 09:05:28;;;;;;;4.77;3.53;;;;;;;24.48;37.53;101264.63;124870;1093;64280;-74
2021/06/26 09:08:08;;;;;;;4.63;3.90;;;;;;;24.45;37.38;101272.44;125054;1093;64307;-74
2021/06/26 09:10:36;;;;;;;6.13;3.70;;;;;;;24.41;37.43;101266.69;124932;1092;65474;-73
2021/06/26 09:13:22;;;;;;;6.20;3.50;;;;;;;24.47;36.09;101271.10;124846;1093;64448;-73
2021/06/26 09:16:11;;;;;;;4.07;2.50;;;;;;;24.45;35.61;101267.02;125142;1093;64306;-73
2021/06/26 09:18:51;;;;;;;3.97;2.63;;;;;;;24.42;36.31;101263.73;124845;1093;64234;-74
2021/06/26 09:24:05;;;;;;;5.40;3.17;;;;;;;24.45;35.48;101261.59;124847;1093;65476;-73
2021/06/26 09:26:37;;;;;;;6.60;3.63;;;;;;;24.46;35.95;101263.21;124829;1093;64207;-76
2021/06/26 09:29:13;;;;;;;6.33;4.50;;;;;;;24.51;36.50;101258.70;124937;1093;64253;-75
2021/06/26 09:31:49;;;;;;;4.70;3.10;;;;;;;24.56;36.70;101260.66;124988;1093;64282;-74
2021/06/26 09:34:18;;;;;;;5.77;3.70;;;;;;;24.61;36.16;101258.02;124913;1093;64301;-74
2021/06/26 09:37:04;;;;;;;5.13;3.83;;;;;;;24.66;36.48;101257.24;124989;1093;64265;-74
2021/06/26 09:39:35;;;;;;;4.07;3.03;;;;;;;24.59;36.17;101262.87;125747;1093;64387;-74
2021/06/26 09:42:15;;;;;;;4.10;3.07;;;;;;;24.58;36.67;101251.17;124994;1092;64313;-76
2021/06/26 09:45:00;;;;;;;5.27;3.83;;;;;;;24.65;36.10;101255.58;125116;1093;65524;-73
2021/06/26 09:47:33;;;;;;;4.53;3.17;;;;;;;24.70;35.57;101253.75;124860;1092;64179;-73
2021/06/26 09:50:13;;;;;;;5.43;4.30;;;;;;;24.70;35.84;101258.38;124883;1093;64310;-73
2021/06/26 09:52:48;;;;;;;8.93;4.20;;;;;;;24.73;37.10;101257.84;124771;1093;64290;-73
2021/06/26 09:55:28;;;;;;;5.80;3.27;;;;;;;24.76;37.43;101260.88;124794;1093;64307;-73
2021/06/26 09:57:58;;;;;;;6.50;4.27;;;;;;;24.79;36.73;101257.63;124845;1093;64284;-72
2021/06/26 10:00:29;;;;;;;6.33;3.10;;;;;;;24.86;36.16;101251.19;125082;1092;64525;-73
2021/06/26 10:02:58;;;;;;;4.47;3.60;;;;;;;24.94;37.39;101248.01;125111;1093;64269;-75
2021/06/26 10:05:26;;;;;;;6.60;3.60;;;;;;;24.96;36.22;101254.00;124911;1092;64483;-73
2021/06/26 10:07:55;;;;;;;7.10;4.23;;;;;;;25.03;36.69;101247.29;124889;1093;65220;-74
2021/06/26 10:10:23;;;;;;;5.67;4.00;;;;;;;25.12;36.48;101244.92;124775;1093;64288;-75
2021/06/26 10:12:52;;;;;;;5.07;3.00;;;;;;;25.26;36.35;101239.08;124851;1093;64373;-75
2021/06/26 10:15:22;;;;;;;4.57;2.90;;;;;;;25.36;36.87;101239.97;124654;1093;64288;-77
2021/06/26 10:17:50;;;;;;;3.50;1.90;;;;;;;25.46;35.42;101233.80;125109;1093;64470;-72
2021/06/26 10:20:21;;;;;;;4.77;2.67;;;;;;;25.47;35.41;101240.04;124913;1093;64211;-73
2021/06/26 10:22:58;;;;;;;4.73;3.37;;;;;;;25.46;34.91;101233.80;124777;1092;64351;-74
2021/06/26 10:25:32;;;;;;;5.77;4.13;;;;;;;25.49;34.80;101233.27;125112;1093;64255;-74
2021/06/26 10:28:19;;;;;;;4.60;3.90;;;;;;;25.58;35.03;101231.67;125016;1093;64255;-74
2021/06/26 10:30:58;;;;;;;4.87;3.03;;;;;;;25.59;36.58;101238.77;124874;1093;64252;-74
2021/06/26 10:33:27;;;;;;;3.97;2.73;;;;;;;25.70;35.89;101238.83;124965;1093;64229;-74
2021/06/26 10:35:56;;;;;;;4.75;2.90;;;;;;;25.81;35.48;101235.08;125045;1093;64936;-73
2021/06/26 10:38:24;;;;;;;5.60;4.30;;;;;;;25.87;34.78;101234.02;125151;1093;64281;-77
2021/06/26 10:40:54;;;;;;;4.07;3.33;;;;;;;25.82;34.07;101226.67;124830;1092;64297;-76
2021/06/26 10:43:29;;;;;;;4.80;4.00;;;;;;;25.82;34.26;101226.67;125069;1093;64419;-73
2021/06/26 10:46:10;;;;;;;4.60;2.70;;;;;;;25.89;35.38;101231.08;124943;1093;64249;-74
2021/06/26 10:48:40;;;;;;;6.87;2.53;;;;;;;25.91;36.13;101235.16;124644;1093;64316;-74
2021/06/26 10:51:10;;;;;;;3.90;3.20;;;;;;;25.96;34.17;101226.21;124805;1092;64968;-73
2021/06/26 10:53:39;;;;;;;4.33;3.00;;;;;;;26.01;34.99;101229.78;124873;1093;64285;-74
2021/06/26 10:56:10;;;;;;;3.67;2.40;;;;;;;26.10;34.53;101226.55;124914;1093;64418;-72
2021/06/26 10:58:40;;;;;;;5.17;2.20;;;;;;;26.22;35.30;101232.55;124860;1093;64301;-74
2021/06/26 11:01:22;;;;;;;3.70;2.20;;;;;;;26.31;34.87;101230.98;124886;1093;64326;-74
2021/06/26 11:03:52;;;;;;;3.67;2.50;;;;;;;26.45;36.01;101234.80;124874;1093;64326;-73
2021/06/26 11:06:29;;;;;;;7.33;2.60;;;;;;;26.65;35.08;101230.54;124867;1093;64374;-74
2021/06/26 11:08:59;;;;;;;2.63;1.97;;;;;;;26.88;35.34;101226.45;124773;1093;64208;-74
2021/06/26 11:11:45;;;;;;;6.73;2.70;;;;;;;27.09;34.70;101226.47;124846;1093;64483;-74
2021/06/26 11:14:19;;;;;;;3.90;2.10;;;;;;;27.29;34.55;101228.38;124922;1093;64305;-73
2021/06/26 11:16:50;;;;;;;4.37;2.60;;;;;;;27.49;34.36;101227.55;125087;1092;64307;-74
2021/06/26 11:19:20;;;;;;;2.20;1.73;;;;;;;27.68;33.64;101223.13;124735;1093;64301;-73
2021/06/26 11:21:50;;;;;;;3.20;1.80;;;;;;;27.72;32.50;101223.41;125060;1093;64419;-73
2021/06/26 11:24:19;;;;;;;4.67;3.97;;;;;;;27.68;32.14;101225.05;125207;1092;64259;-73
2021/06/26 11:26:47;;;;;;;3.80;2.40;;;;;;;27.52;32.28;101219.65;124777;1092;64333;-73